Terminal Aerodrome Forecast
Issued by NWS

Home | Current Version | Previous Version | Text Only | Print | Product List | Glossary On
Versions: 1 2 3 4 5 6 7 8 9 10 11 12 13
243
FTPA31 PHFO 301736
TAFHKO
TAF
PHKO 301736Z 3018/0118 10004KT P6SM SKC
     FM301900 21010KT P6SM FEW060
     FM010300 28004KT P6SM FEW030 BKN050
     FM010800 06004KT P6SM FEW050=

USA.gov is the U.S. government's official web portal to all federal, state and local government web resources and services.